createdAt,value
2023-03-23T15:58:43.534Z,11.85
2023-03-23T16:01:15.687Z,5.22
2023-03-23T16:03:48.029Z,9.43
2023-03-23T16:06:23.879Z,11.85
2023-03-23T16:08:56.457Z,7.22
2023-03-23T16:11:26.106Z,13.40
2023-03-23T16:13:53.774Z,6.78
2023-03-23T16:16:26.260Z,8.20
2023-03-23T16:18:53.128Z,4.97
2023-03-23T16:21:19.825Z,6.63
2023-03-23T16:23:46.550Z,4.00
2023-03-23T16:26:14.582Z,6.95
2023-03-23T16:28:42.203Z,5.93
2023-03-23T16:31:08.833Z,6.13
2023-03-23T16:33:35.533Z,4.80
2023-03-23T16:36:02.259Z,5.85
2023-03-23T16:38:28.889Z,4.35
2023-03-23T16:40:55.753Z,8.95
2023-03-23T16:43:22.640Z,4.45
2023-03-23T16:45:49.379Z,5.32
2023-03-23T16:48:17.082Z,7.97
2023-03-23T16:50:44.972Z,6.03
2023-03-23T16:53:11.794Z,5.45
2023-03-23T16:55:39.180Z,7.65
2023-03-23T16:58:16.292Z,6.57
2023-03-23T17:00:48.065Z,5.57
2023-03-23T17:03:16.504Z,6.37
2023-03-23T17:05:45.045Z,6.32
2023-03-23T17:08:12.312Z,6.45
2023-03-23T17:10:40.738Z,7.05
2023-03-23T17:13:08.028Z,11.07
2023-03-23T17:15:40.904Z,7.13
2023-03-23T17:18:08.028Z,7.28
2023-03-23T17:20:35.898Z,7.57
2023-03-23T17:23:03.038Z,7.93
2023-03-23T17:25:33.320Z,7.82
2023-03-23T17:28:05.888Z,12.55
2023-03-23T17:30:34.735Z,7.03
2023-03-23T17:33:05.139Z,8.63
2023-03-23T17:35:32.453Z,5.22
2023-03-23T17:37:59.905Z,5.47
2023-03-23T17:40:29.813Z,5.43
2023-03-23T17:42:56.793Z,5.38
2023-03-23T17:45:24.149Z,7.20
2023-03-23T17:47:51.063Z,7.40
2023-03-23T17:50:17.749Z,8.10
2023-03-23T17:52:44.304Z,5.78
2023-03-23T17:55:11.198Z,10.52
2023-03-23T17:57:37.813Z,7.63
2023-03-23T18:00:08.605Z,7.78
2023-03-23T18:02:36.964Z,6.73
2023-03-23T18:05:03.852Z,7.65
2023-03-23T18:07:30.281Z,7.05
2023-03-23T18:10:00.265Z,4.70
2023-03-23T18:12:26.793Z,8.60
2023-03-23T19:00:39.660Z,6.45
2023-03-23T19:03:06.977Z,10.63
2023-03-23T19:05:34.963Z,6.45
2023-03-23T19:08:01.756Z,6.28
2023-03-23T19:10:28.448Z,5.07
2023-03-23T19:12:54.933Z,6.35
2023-03-23T19:15:21.508Z,7.38
2023-03-23T19:17:48.026Z,7.60
2023-03-23T19:20:19.736Z,6.43
2023-03-23T19:23:01.138Z,9.02
2023-03-23T19:25:27.707Z,5.88
2023-03-23T19:30:23.644Z,8.35
2023-03-23T19:32:50.097Z,14.90
2023-03-23T19:35:16.780Z,7.15
2023-03-23T19:37:43.418Z,5.18
2023-03-23T19:40:33.792Z,7.38
2023-03-23T19:42:57.487Z,9.05
2023-03-23T19:45:24.011Z,10.98
2023-03-23T19:47:51.022Z,7.90
2023-03-23T19:50:17.581Z,11.73
2023-03-23T19:52:44.780Z,9.25
2023-03-23T19:55:11.656Z,12.23
2023-03-23T19:57:38.163Z,12.40
2023-03-23T20:00:07.628Z,11.43
2023-03-23T20:02:34.196Z,11.75
2023-03-23T20:05:00.839Z,11.75
2023-03-23T20:07:30.007Z,11.52
2023-03-23T20:09:56.520Z,11.32
2023-03-23T20:12:22.963Z,9.52
2023-03-23T20:14:49.556Z,12.93
2023-03-23T21:28:10.709Z,10.45
2023-03-23T21:30:37.484Z,8.35
2023-03-23T21:33:03.912Z,16.08
2023-03-23T21:35:30.394Z,15.95
2023-03-23T21:37:58.090Z,12.40
2023-03-23T21:40:26.197Z,15.00
2023-03-23T21:42:53.212Z,17.83
2023-03-23T21:45:20.980Z,13.93
2023-03-23T21:47:48.387Z,16.75
2023-03-23T21:50:15.992Z,15.02
2023-03-23T21:52:43.532Z,16.88
2023-03-23T21:55:12.447Z,12.70
2023-03-23T21:57:40.581Z,10.38
2023-03-23T22:00:09.342Z,15.23
2023-03-23T22:02:36.199Z,12.02
2023-03-23T22:05:02.707Z,10.73
2023-03-23T22:07:31.093Z,12.23
2023-03-23T22:09:59.074Z,10.50
2023-03-23T22:12:26.119Z,13.18
2023-03-23T22:14:52.573Z,27.58
2023-03-23T22:17:19.030Z,15.30
2023-03-23T22:19:45.635Z,15.38
2023-03-23T22:22:12.196Z,10.75
2023-03-23T22:24:38.631Z,13.65
2023-03-23T22:27:05.262Z,15.07
2023-03-23T22:29:31.972Z,11.85
2023-03-23T22:31:58.467Z,12.88
2023-03-23T22:34:24.956Z,15.18
2023-03-23T22:36:51.567Z,11.05
2023-03-23T22:39:18.050Z,13.13
2023-03-23T22:41:44.763Z,12.88
2023-03-23T22:44:14.718Z,9.18
2023-03-23T22:46:41.540Z,11.60
2023-03-23T22:49:08.065Z,12.88
2023-03-23T22:51:36.794Z,14.63
2023-03-23T22:54:04.497Z,13.00
2023-03-23T22:56:31.767Z,16.73
2023-03-23T22:59:00.101Z,12.05
2023-03-23T23:01:27.618Z,11.75
2023-03-23T23:03:54.152Z,14.55
2023-03-23T23:06:21.290Z,10.18
2023-03-23T23:08:48.764Z,9.50
2023-03-23T23:11:17.332Z,10.93
2023-03-23T23:13:44.375Z,6.78
2023-03-23T23:16:13.086Z,11.27
2023-03-23T23:18:40.655Z,11.48
2023-03-23T23:21:09.852Z,10.05
2023-03-23T23:23:37.442Z,8.80
2023-03-23T23:26:04.723Z,9.15
2023-03-23T23:28:31.733Z,8.65
2023-03-23T23:30:58.586Z,10.32
2023-03-23T23:33:25.425Z,8.23
2023-03-23T23:35:52.060Z,6.45
2023-03-23T23:38:18.688Z,7.85
2023-03-23T23:40:46.407Z,9.65
